North Woods Beach, Wisconsin
Current Conditions -  °F | °C
As of 4:12 PM on Wednesday 28 Jan 2015 (Local Time) from KHYR Reporting Station
Haze Haze  
Wind Chill: -6°   Ceiling: 1400
Heat Index: -2°   Visibility: 4mi
Dew Point: -6°   Wind: 7mph
Humidity: 78%   Direction: 140°SE
Pressure: 29.82"   Gusts: NA
Location:  46.0387°N, 91.2627°W
Report Text: KHYR 282212Z AUTO 14006KT 4SM HZ BKN014 M02/M06 A2982 RMK AO2 T10221056
Loading
Personal Weather Stations






























Interactive Weather Map New forecast layout! Learn more

10-Day Weather Forecast

Advertisements
Track Severe Weather on mobile